Terminal Aerodrome Forecast
Issued by NWS

Home | Current Version | Previous Version | Text Only | Print | Product List | Glossary On
Versions: 1 2 3 4 5 6 7 8 9 10 11 12 13 14 15
000
FTUS42 TJSJ 281700 RRA
TAFNCM
TAF
TNCM 281742Z 2818/2918 06013KT P6SM VCSH SCT019 SCT040
     FM282300 10008KT P6SM VCSH SCT020 SCT040
     FM291500 08012KT P6SM SCT018 SCT050=

USA.gov is the U.S. government's official web portal to all federal, state and local government web resources and services.